Zomergem, Belgium
Current Conditions -  °F | °C
As of 12:55 PM on Friday 19 Dec 2014 (Local Time) from EHFS Reporting Station
Broken Clouds Broken Clouds  
Wind Chill: 45°   Ceiling: 2800
Heat Index: 48°   Visibility: 6mi
Dew Point: 46°   Wind: 8mph
Humidity: 93%   Direction: 300°WNW
Pressure: 29.91"   Gusts: NA
Location:  51.12°N, 3.56°E
Report Text: EHFS 191155Z AUTO 30007KT 260V320 9999 FEW012/// SCT024///BKN028/// 09/08 Q1013
Loading
Personal Weather Stations






























Interactive Weather Map New forecast layout! Learn more

10-Day Weather Forecast

Advertisements
Track Severe Weather on mobile